Weather at Baglung Airport

Public forecast

Using degrees Celsius for public forecast. Weather courtesy of forecast.io.

Closest aviation weather report (METAR) to Baglung Airport

Report is more than 6 hours old.

Closest report is Kushinagar International Airport, 87.0 nm (161.2 km) S.

2024/05/26 13:00 (retrieved 8 hours ago)

VEKI 261300Z VRB03KT 5000 HZ FEW025 SCT200 36/23 Q0995 NOSIG

Closest aviation forecast (TAF) to Baglung Airport

Forecast is more than 12 hours old.

Closest forecast is Kushinagar International Airport, 87.0 nm (161.2 km) S.

2024/05/25 06:00 (retrieved 2 days ago)

TAF VEKI 250500Z 2506/2612 09006KT 5000 HZ FEW100 BECMG 2506/2508 5000 HZ FEW025 SCT100 BECMG 2513/2515 32010KT 4000 HZ BECMG 2523/2601 05005KT 3000 HZ NSC BECMG 2603/2605 VRB02KT 5000 HZ FEW025 BECMG 2606/2608 07008KT 5000 HZ FEW025 SCT100